Time;durP1;ratioP1;P1;durP2;ratioP2;P2;SDS_P1;SDS_P2;PMS_P1;PMS_P2;Temp;Humidity;BMP_temperature;BMP_pressure;BME280_temperature;BME280_humidity;BME280_pressure;Samples;Min_cycle;Max_cycle;Signal;HPM_P1;HPM_P2
2022/04/22 00:02:05;;;;;;;1999.90;999.90;;;11.80;99.90;;;;;;5033008;28;20174;-68
2022/04/22 00:04:30;;;;;;;1999.90;999.90;;;11.80;99.90;;;;;;5032837;28;20184;-68
2022/04/22 00:06:56;;;;;;;1999.90;999.90;;;11.80;99.90;;;;;;5033016;28;20179;-68
2022/04/22 00:09:22;;;;;;;1999.90;999.90;;;11.80;99.90;;;;;;5032873;28;20208;-68
2022/04/22 00:11:47;;;;;;;1999.90;999.90;;;11.80;99.90;;;;;;5032931;28;20177;-68
2022/04/22 00:14:13;;;;;;;1999.90;999.90;;;11.80;99.90;;;;;;5032553;28;20210;-68
2022/04/22 00:16:38;;;;;;;1999.90;999.90;;;11.80;99.90;;;;;;5032846;28;20169;-68
2022/04/22 00:19:04;;;;;;;1999.90;999.90;;;11.70;99.90;;;;;;5032708;28;20193;-68
2022/04/22 00:21:30;;;;;;;1999.90;999.90;;;11.70;99.90;;;;;;5032799;28;20173;-68
2022/04/22 00:23:55;;;;;;;1999.90;999.90;;;11.60;99.90;;;;;;5032574;28;20196;-68
2022/04/22 00:26:21;;;;;;;1999.90;999.90;;;11.60;99.90;;;;;;5032464;28;20685;-68
2022/04/22 00:28:47;;;;;;;1999.90;999.90;;;11.50;99.90;;;;;;5032491;28;20262;-68
2022/04/22 00:31:14;;;;;;;1999.90;999.90;;;11.50;99.90;;;;;;5032604;28;20422;-68
2022/04/22 00:33:41;;;;;;;1999.90;999.90;;;11.40;99.90;;;;;;5032696;28;20932;-69
2022/04/22 00:36:07;;;;;;;1999.90;999.90;;;11.30;99.90;;;;;;5034642;28;21067;-69
2022/04/22 00:38:34;;;;;;;1999.90;999.90;;;11.30;99.90;;;;;;5035431;28;20486;-69
2022/04/22 00:41:00;;;;;;;1999.90;999.90;;;11.20;99.90;;;;;;5035664;28;20415;-69
2022/04/22 00:43:27;;;;;;;1999.90;999.90;;;11.20;99.90;;;;;;5035873;28;20415;-69
2022/04/22 00:45:54;;;;;;;1999.90;999.90;;;11.20;99.90;;;;;;5035225;28;20557;-69
2022/04/22 00:48:21;;;;;;;1999.90;999.90;;;11.30;99.90;;;;;;5036623;28;20430;-69
2022/04/22 00:50:47;;;;;;;1999.90;999.90;;;11.20;99.90;;;;;;5035744;28;20410;-68
2022/04/22 00:53:13;;;;;;;1999.90;999.90;;;11.20;99.90;;;;;;5035704;28;20820;-69
2022/04/22 00:55:44;;;;;;;1999.90;999.90;;;11.20;99.90;;;;;;5034786;28;20463;-68
2022/04/22 00:58:11;;;;;;;1999.90;999.90;;;11.20;99.90;;;;;;5035501;28;20727;-68
2022/04/22 01:00:37;;;;;;;1999.90;999.90;;;11.10;99.90;;;;;;5035571;28;20793;-68
2022/04/22 01:03:04;;;;;;;1999.90;999.90;;;11.00;99.90;;;;;;5035429;28;20418;-69
2022/04/22 01:10:59;;;;;;;1999.90;999.90;;;10.90;99.90;;;;;;5035373;28;20421;-68
2022/04/22 01:13:25;;;;;;;1999.90;999.90;;;10.90;99.90;;;;;;5034889;28;20415;-68
2022/04/22 01:15:50;;;;;;;1999.90;999.90;;;10.90;99.90;;;;;;5034491;28;20463;-69
2022/04/22 01:18:17;;;;;;;1999.90;999.90;;;10.80;99.90;;;;;;5034939;28;20189;-69
2022/04/22 01:20:43;;;;;;;1999.90;999.90;;;10.80;99.90;;;;;;5017625;28;20287;-69
2022/04/22 01:23:09;;;;;;;1999.90;999.90;;;10.80;99.90;;;;;;5034622;28;20494;-69
2022/04/22 01:25:34;;;;;;;1999.90;999.90;;;10.80;99.90;;;;;;5032061;28;20422;-68
2022/04/22 01:28:01;;;;;;;1999.90;999.90;;;10.70;99.90;;;;;;5031776;28;20183;-68
2022/04/22 01:30:27;;;;;;;1999.90;999.90;;;10.60;99.90;;;;;;5032170;28;20184;-68
2022/04/22 01:32:56;;;;;;;1999.90;999.90;;;10.60;99.90;;;;;;5031832;28;20420;-68
2022/04/22 01:35:22;;;;;;;1999.90;999.90;;;10.50;99.90;;;;;;5031317;28;20718;-68
2022/04/22 01:37:48;;;;;;;1999.90;999.90;;;10.40;99.90;;;;;;5031741;28;20489;-68
2022/04/22 01:40:14;;;;;;;1999.90;999.90;;;10.50;99.90;;;;;;5062824;22;20521;-72
2022/04/22 01:42:41;;;;;;;1999.90;999.90;;;10.50;99.90;;;;;;5052527;28;20791;-73
2022/04/22 01:45:08;;;;;;;1999.90;999.90;;;10.40;99.90;;;;;;5052274;28;20405;-73
2022/04/22 01:47:34;;;;;;;1999.90;999.90;;;10.30;99.90;;;;;;5052247;28;20406;-73
2022/04/22 01:50:00;;;;;;;1999.90;999.90;;;10.20;99.90;;;;;;5052103;28;20418;-73
2022/04/22 01:52:26;;;;;;;1999.90;999.90;;;10.10;99.90;;;;;;5052226;28;20401;-73
2022/04/22 01:54:54;;;;;;;1999.90;999.90;;;10.10;99.90;;;;;;5051814;28;20202;-73
2022/04/22 01:57:20;;;;;;;1999.90;999.90;;;10.20;99.90;;;;;;5051842;28;20420;-73
2022/04/22 01:59:48;;;;;;;1999.90;999.90;;;10.20;99.90;;;;;;5051720;28;20434;-73
2022/04/22 02:02:14;;;;;;;1999.90;999.90;;;10.20;99.90;;;;;;5051686;28;20405;-73
2022/04/22 02:04:40;;;;;;;1999.90;999.90;;;10.20;99.90;;;;;;5054943;28;20411;-73
2022/04/22 02:07:06;;;;;;;1999.90;999.90;;;10.20;99.90;;;;;;5055320;28;20768;-73
2022/04/22 02:09:32;;;;;;;1999.90;999.90;;;10.20;99.90;;;;;;5053985;28;20434;-73
2022/04/22 02:11:58;;;;;;;1999.90;999.90;;;10.20;99.90;;;;;;5055187;28;20242;-73
2022/04/22 02:14:24;;;;;;;1999.90;999.90;;;10.20;99.90;;;;;;5054806;28;20195;-73
2022/04/22 02:16:50;;;;;;;1999.90;999.90;;;10.30;99.90;;;;;;5055069;28;20168;-73
2022/04/22 02:19:15;;;;;;;1999.90;999.90;;;10.30;99.90;;;;;;5054953;28;21022;-73
2022/04/22 02:21:41;;;;;;;1999.90;999.90;;;10.30;99.90;;;;;;5055060;28;20178;-73
2022/04/22 02:24:07;;;;;;;1999.90;999.90;;;10.20;99.90;;;;;;5054720;28;20166;-73
2022/04/22 02:28:31;;;;;;;1999.90;999.90;;;10.10;99.90;;;;;;5054742;28;20192;-73
2022/04/22 02:29:19;;;;;;;1999.90;999.90;;;10.10;99.90;;;;;;5054529;28;20429;-73
2022/04/22 02:31:45;;;;;;;1999.90;999.90;;;10.10;99.90;;;;;;5054796;28;20405;-73
2022/04/22 02:34:11;;;;;;;1999.90;999.90;;;10.10;99.90;;;;;;5055041;28;20401;-74
2022/04/22 02:36:36;;;;;;;1999.90;999.90;;;10.00;99.90;;;;;;5055363;28;20338;-73
2022/04/22 02:39:02;;;;;;;1999.90;999.90;;;10.00;99.90;;;;;;5055167;28;20579;-73
2022/04/22 02:46:56;;;;;;;1999.90;999.90;;;9.90;99.90;;;;;;5054577;28;20409;-72
2022/04/22 02:49:21;;;;;;;1999.90;999.90;;;9.80;99.90;;;;;;5054327;28;20433;-72
2022/04/22 02:51:47;;;;;;;1999.90;999.90;;;9.80;99.90;;;;;;5054326;28;20164;-72
2022/04/22 02:54:13;;;;;;;1999.90;999.90;;;9.90;99.90;;;;;;5053985;28;20163;-73
2022/04/22 02:56:38;;;;;;;1999.90;999.90;;;9.80;99.90;;;;;;5054294;28;20708;-73
2022/04/22 02:59:05;;;;;;;1999.90;999.90;;;9.80;99.90;;;;;;5054206;28;20273;-72
2022/04/22 03:01:31;;;;;;;1999.90;999.90;;;9.80;99.90;;;;;;5054241;28;20528;-73
2022/04/22 03:03:57;;;;;;;1999.90;999.90;;;9.80;99.90;;;;;;5054113;28;20409;-73
2022/04/22 03:06:26;;;;;;;1999.90;999.90;;;9.70;99.90;;;;;;5053936;28;20467;-73
2022/04/22 03:08:52;;;;;;;1999.90;999.90;;;9.80;99.90;;;;;;5053997;28;20503;-73
2022/04/22 03:11:20;;;;;;;1999.90;999.90;;;9.70;99.90;;;;;;5054008;28;20416;-72
2022/04/22 03:13:45;;;;;;;1999.90;999.90;;;9.70;99.90;;;;;;5053490;28;20441;-71
2022/04/22 03:16:11;;;;;;;1999.90;999.90;;;9.60;99.90;;;;;;5053698;28;20481;-73
2022/04/22 03:18:37;;;;;;;1999.90;999.90;;;9.60;99.90;;;;;;5053744;28;20186;-73
2022/04/22 03:21:03;;;;;;;1999.90;999.90;;;9.60;99.90;;;;;;5053873;28;20245;-71
2022/04/22 03:23:28;;;;;;;1999.90;999.90;;;9.60;99.90;;;;;;5053864;28;20174;-70
2022/04/22 03:25:54;;;;;;;1999.90;999.90;;;9.60;99.90;;;;;;5053464;28;20423;-70
2022/04/22 03:28:21;;;;;;;1999.90;999.90;;;9.50;99.90;;;;;;5053579;28;20224;-70
2022/04/22 03:30:46;;;;;;;1999.90;999.90;;;9.50;99.90;;;;;;5053729;28;20418;-70
2022/04/22 03:33:12;;;;;;;1999.90;999.90;;;9.40;99.90;;;;;;5053629;28;20410;-71
2022/04/22 03:35:38;;;;;;;1999.90;999.90;;;9.40;99.90;;;;;;5053205;28;20193;-70
2022/04/22 03:38:04;;;;;;;1999.90;999.90;;;9.30;99.90;;;;;;5053583;28;20517;-71
2022/04/22 03:40:29;;;;;;;1999.90;999.90;;;9.30;99.90;;;;;;5053325;28;21246;-71
2022/04/22 03:42:55;;;;;;;1999.90;999.90;;;9.30;99.90;;;;;;5053432;28;20191;-71
2022/04/22 03:45:22;;;;;;;1999.90;999.90;;;9.20;99.90;;;;;;5053158;28;20205;-71
2022/04/22 03:47:48;;;;;;;1999.90;999.90;;;9.20;99.90;;;;;;5053468;28;20175;-71
2022/04/22 03:50:13;;;;;;;1999.90;999.90;;;9.20;99.90;;;;;;5053421;28;20432;-71
2022/04/22 03:52:39;;;;;;;1999.90;999.90;;;9.20;99.90;;;;;;5053298;28;20417;-71
2022/04/22 03:55:06;;;;;;;1999.90;999.90;;;9.10;99.90;;;;;;5052985;28;20278;-71
2022/04/22 04:00:16;;;;;;;1999.90;999.90;;;9.00;99.90;;;;;;5053166;28;20432;-71
2022/04/22 04:02:42;;;;;;;1999.90;999.90;;;9.00;99.90;;;;;;5053083;28;20402;-71
2022/04/22 04:05:08;;;;;;;1999.90;999.90;;;8.90;99.90;;;;;;5052885;28;20218;-71
2022/04/22 04:07:33;;;;;;;1999.90;999.90;;;8.90;99.90;;;;;;5053040;28;20416;-71
2022/04/22 04:18:11;;;;;;;1999.90;999.90;;;8.80;99.90;;;;;;5052810;28;20407;-71
2022/04/22 04:23:21;;;;;;;1999.90;999.90;;;8.80;99.90;;;;;;5052636;28;20548;-71
2022/04/22 04:25:47;;;;;;;1999.90;999.90;;;8.80;99.90;;;;;;5051647;28;20492;-71
2022/04/22 04:28:15;;;;;;;1999.90;999.90;;;8.70;99.90;;;;;;5052502;28;20176;-71
2022/04/22 04:30:41;;;;;;;1999.90;999.90;;;8.70;99.90;;;;;;5052612;28;20410;-71
2022/04/22 04:33:10;;;;;;;1999.90;999.90;;;8.80;99.90;;;;;;5052534;28;20404;-71
2022/04/22 04:35:37;;;;;;;1999.90;999.90;;;8.70;99.90;;;;;;5052178;28;20439;-71
2022/04/22 04:38:03;;;;;;;1999.90;999.90;;;8.70;99.90;;;;;;5052510;28;20777;-71
2022/04/22 04:40:29;;;;;;;1999.90;999.90;;;8.80;99.90;;;;;;5052157;28;20464;-71
2022/04/22 04:42:55;;;;;;;1999.90;999.90;;;8.80;99.90;;;;;;5052316;28;20486;-71
2022/04/22 04:45:21;;;;;;;1999.90;999.90;;;8.80;99.90;;;;;;5052148;28;20297;-71
2022/04/22 04:47:47;;;;;;;1999.90;999.90;;;8.80;99.90;;;;;;5052318;28;20171;-71
2022/04/22 04:50:13;;;;;;;1999.90;999.90;;;8.80;99.90;;;;;;5052214;28;20435;-71
2022/04/22 04:52:40;;;;;;;1999.90;999.90;;;8.70;99.90;;;;;;5052146;28;20947;-71
2022/04/22 04:55:08;;;;;;;1999.90;999.90;;;8.80;99.90;;;;;;5051770;28;20456;-71
2022/04/22 04:57:34;;;;;;;1999.90;999.90;;;8.80;99.90;;;;;;5052075;28;20409;-71
2022/04/22 05:00:01;;;;;;;1999.90;999.90;;;8.80;99.90;;;;;;5052061;28;20427;-71
2022/04/22 05:02:26;;;;;;;1999.90;999.90;;;8.90;99.90;;;;;;5052047;28;20424;-71
2022/04/22 05:04:52;;;;;;;1999.90;999.90;;;8.90;99.90;;;;;;5051693;28;20487;-71
2022/04/22 05:07:18;;;;;;;1999.90;999.90;;;8.90;99.90;;;;;;5052057;28;20248;-71
2022/04/22 05:09:44;;;;;;;1999.90;999.90;;;8.90;99.90;;;;;;5051913;28;20232;-71
2022/04/22 05:12:12;;;;;;;1999.90;999.90;;;9.00;99.90;;;;;;5051995;28;20397;-72
2022/04/22 05:14:38;;;;;;;1999.90;999.90;;;9.10;99.90;;;;;;5051669;28;20189;-71
2022/04/22 05:17:03;;;;;;;1999.90;999.90;;;9.10;99.90;;;;;;5051900;28;20414;-71
2022/04/22 05:19:29;;;;;;;1999.90;999.90;;;9.20;99.90;;;;;;5051715;28;20698;-71
2022/04/22 05:21:55;;;;;;;1999.90;999.90;;;9.20;99.90;;;;;;5051936;28;20171;-71
2022/04/22 05:24:21;;;;;;;1999.90;999.90;;;9.30;99.90;;;;;;5051654;28;20724;-71
2022/04/22 05:26:47;;;;;;;1999.90;999.90;;;9.40;99.90;;;;;;5051747;28;20402;-71
2022/04/22 05:34:42;;;;;;;1999.90;999.90;;;9.50;99.90;;;;;;5051418;28;20456;-72
2022/04/22 05:37:08;;;;;;;1999.90;999.90;;;9.60;99.90;;;;;;5053038;28;20413;-72
2022/04/22 05:39:34;;;;;;;1999.90;999.90;;;9.60;99.90;;;;;;5055525;28;20230;-72
2022/04/22 05:42:01;;;;;;;1999.90;999.90;;;9.70;99.90;;;;;;5055772;28;20820;-72
2022/04/22 05:44:29;;;;;;;1999.90;999.90;;;9.70;99.90;;;;;;5055466;28;20413;-72
2022/04/22 05:46:55;;;;;;;1999.90;999.90;;;9.80;99.90;;;;;;5055591;28;20402;-72
2022/04/22 05:49:21;;;;;;;1999.90;999.90;;;9.90;99.90;;;;;;5055539;28;20564;-72
2022/04/22 05:51:46;;;;;;;1999.90;999.90;;;10.00;99.90;;;;;;5055569;28;20664;-72
2022/04/22 05:54:12;;;;;;;1999.90;999.90;;;10.10;99.90;;;;;;5055030;28;20167;-72
2022/04/22 05:56:37;;;;;;;1999.90;999.90;;;10.20;99.90;;;;;;5055449;28;20164;-72
2022/04/22 05:59:03;;;;;;;1999.90;999.90;;;10.20;99.90;;;;;;5055362;28;20184;-72
2022/04/22 06:01:29;;;;;;;1999.90;999.90;;;10.30;99.90;;;;;;5055355;28;20163;-72
2022/04/22 06:03:55;;;;;;;1999.90;999.90;;;10.30;99.90;;;;;;5055325;28;20887;-72
2022/04/22 06:06:20;;;;;;;1999.90;999.90;;;10.40;99.90;;;;;;5055049;28;20484;-72
2022/04/22 06:11:32;;;;;;;1999.90;999.90;;;10.60;99.90;;;;;;5055178;28;20263;-71
2022/04/22 06:13:58;;;;;;;1999.90;999.90;;;10.70;99.90;;;;;;5055394;28;20410;-70
2022/04/22 06:16:24;;;;;;;1999.90;999.90;;;10.80;99.90;;;;;;5054877;28;20456;-72
2022/04/22 06:18:49;;;;;;;1999.90;999.90;;;10.80;99.90;;;;;;5054938;28;20664;-72
2022/04/22 06:21:15;;;;;;;1999.90;999.90;;;10.90;99.90;;;;;;5055027;28;20171;-72
2022/04/22 06:23:41;;;;;;;1999.90;999.90;;;11.00;99.90;;;;;;5054878;28;20172;-72
2022/04/22 06:26:06;;;;;;;1999.90;999.90;;;11.00;99.90;;;;;;5054567;28;20258;-71
2022/04/22 06:28:33;;;;;;;1999.90;999.90;;;11.10;99.90;;;;;;5054689;28;20187;-72
2022/04/22 06:30:59;;;;;;;1999.90;999.90;;;11.20;99.90;;;;;;5054821;28;20175;-72
2022/04/22 06:33:25;;;;;;;1999.90;999.90;;;11.20;99.90;;;;;;5054732;28;20432;-72
2022/04/22 06:35:51;;;;;;;1999.90;999.90;;;11.30;99.90;;;;;;5054308;28;20890;-71
2022/04/22 06:38:18;;;;;;;1999.90;999.90;;;11.40;99.90;;;;;;5054366;28;20407;-72
2022/04/22 06:46:13;;;;;;;1999.90;999.90;;;11.60;99.90;;;;;;5054349;28;20779;-72
2022/04/22 06:48:39;;;;;;;1999.90;999.90;;;11.70;99.90;;;;;;5053490;28;20434;-72
2022/04/22 06:51:08;;;;;;;1999.90;999.90;;;11.80;99.90;;;;;;5054499;28;20175;-72
2022/04/22 06:53:34;;;;;;;1999.90;999.90;;;11.90;99.90;;;;;;5054279;28;20410;-72
2022/04/22 06:56:02;;;;;;;1999.90;999.90;;;12.00;99.90;;;;;;5053929;28;20461;-72
2022/04/22 06:58:30;;;;;;;1999.90;999.90;;;12.00;99.90;;;;;;5054244;28;20413;-72
2022/04/22 07:00:56;;;;;;;1999.90;999.90;;;12.10;99.90;;;;;;5051735;28;20915;-73
2022/04/22 07:03:21;;;;;;;1999.90;999.90;;;12.20;99.90;;;;;;5053106;28;20407;-73
2022/04/22 07:05:49;;;;;;;1999.90;999.90;;;12.30;99.90;;;;;;5052883;28;20538;-72
2022/04/22 07:08:17;;;;;;;1999.90;999.90;;;12.40;99.90;;;;;;5053155;28;20175;-73
2022/04/22 07:10:50;;;;;;;1999.90;999.90;;;12.50;99.90;;;;;;5053739;28;20464;-72
2022/04/22 07:13:16;;;;;;;1999.90;999.90;;;12.60;99.90;;;;;;5053471;28;20436;-72
2022/04/22 07:15:47;;;;;;;1999.90;999.90;;;12.60;99.90;;;;;;5052851;28;20471;-72
2022/04/22 07:18:14;;;;;;;1999.90;999.90;;;12.70;99.90;;;;;;5053589;28;20465;-72
2022/04/22 07:20:41;;;;;;;1999.90;999.90;;;12.80;99.90;;;;;;5053516;28;20405;-72
2022/04/22 07:23:09;;;;;;;1999.90;999.90;;;12.70;99.90;;;;;;5052994;28;20404;-72
2022/04/22 07:25:35;;;;;;;1999.90;999.90;;;12.80;99.90;;;;;;5053170;28;20401;-72
2022/04/22 07:28:02;;;;;;;1999.90;999.90;;;12.80;99.90;;;;;;5053389;28;20929;-72
2022/04/22 07:30:27;;;;;;;1999.90;999.90;;;12.80;99.90;;;;;;5052893;28;20428;-72
2022/04/22 07:32:53;;;;;;;1999.90;999.90;;;12.90;99.90;;;;;;5053241;28;20403;-72
2022/04/22 07:35:21;;;;;;;1999.90;999.90;;;13.10;99.90;;;;;;5052930;28;20207;-72
2022/04/22 07:37:53;;;;;;;1999.90;999.90;;;13.10;99.90;;;;;;5052675;28;20399;-72
2022/04/22 07:40:22;;;;;;;1999.90;999.90;;;13.20;99.90;;;;;;5053520;28;20437;-72
2022/04/22 07:48:20;;;;;;;1999.90;999.90;;;13.50;99.90;;;;;;5053101;28;20448;-73
2022/04/22 07:50:47;;;;;;;1999.90;999.90;;;13.70;99.90;;;;;;5052892;28;20793;-73
2022/04/22 07:53:14;;;;;;;1999.90;999.90;;;13.80;99.90;;;;;;5050348;28;20929;-71
2022/04/22 07:55:40;;;;;;;1999.90;999.90;;;13.90;99.90;;;;;;5051243;28;20451;-74
2022/04/22 07:58:06;;;;;;;1999.90;999.90;;;14.00;99.90;;;;;;5052792;28;20416;-74
2022/04/22 08:00:32;;;;;;;1999.90;999.90;;;14.00;99.90;;;;;;5052294;28;20508;-74
2022/04/22 08:02:58;;;;;;;1999.90;999.90;;;14.10;99.90;;;;;;5052812;28;20850;-73
2022/04/22 08:05:23;;;;;;;1999.90;999.90;;;14.30;99.90;;;;;;5052391;28;20168;-73
2022/04/22 08:07:49;;;;;;;1999.90;999.90;;;14.30;99.90;;;;;;5052191;28;20644;-73
2022/04/22 08:10:15;;;;;;;1999.90;999.90;;;14.20;99.90;;;;;;5052480;28;20193;-73
2022/04/22 08:12:41;;;;;;;1999.90;999.90;;;14.30;99.90;;;;;;5051160;28;20178;-74
2022/04/22 08:15:07;;;;;;;1999.90;999.90;;;14.40;99.90;;;;;;5052153;28;20306;-75
2022/04/22 08:17:37;;;;;;;1999.90;999.90;;;14.60;99.90;;;;;;5051413;28;20906;-70
2022/04/22 08:20:06;;;;;;;1999.90;999.90;;;14.80;99.90;;;;;;5052665;28;20429;-70
2022/04/22 08:22:32;;;;;;;1999.90;999.90;;;14.90;99.90;;;;;;5051902;28;20461;-70
2022/04/22 08:24:58;;;;;;;1999.90;999.90;;;15.30;99.90;;;;;;5052553;28;20492;-70
2022/04/22 08:27:28;;;;;;;1999.90;999.90;;;15.60;99.90;;;;;;5053661;28;20947;-70
2022/04/22 08:29:54;;;;;;;1999.90;999.90;;;15.80;99.90;;;;;;5052915;28;20433;-71
2022/04/22 08:32:20;;;;;;;1999.90;999.90;;;15.90;99.90;;;;;;5053258;28;20401;-71
2022/04/22 08:34:46;;;;;;;1999.90;999.90;;;15.90;99.90;;;;;;5055455;28;20448;-70
2022/04/22 08:37:12;;;;;;;1999.90;999.90;;;16.00;99.90;;;;;;5053821;28;20528;-73
2022/04/22 08:39:37;;;;;;;1999.90;999.90;;;16.00;99.90;;;;;;5051633;28;20498;-72
2022/04/22 08:42:04;;;;;;;1999.90;999.90;;;16.00;99.90;;;;;;5051850;28;20820;-72
2022/04/22 08:44:30;;;;;;;1999.90;999.90;;;16.00;99.90;;;;;;5051808;28;20210;-72
2022/04/22 08:50:02;;;;;;;1999.90;999.90;;;15.80;99.90;;;;;;5052585;28;20436;-74
2022/04/22 08:52:33;;;;;;;1999.90;999.90;;;15.60;99.90;;;;;;5052284;28;20393;-73
2022/04/22 08:55:00;;;;;;;1999.90;999.90;;;15.70;99.90;;;;;;5052601;28;20449;-73
2022/04/22 08:57:28;;;;;;;1999.90;999.90;;;15.70;99.90;;;;;;5053066;28;20399;-73
2022/04/22 08:59:59;;;;;;;1999.90;999.90;;;15.90;99.90;;;;;;5051718;28;20930;-74
2022/04/22 09:02:25;;;;;;;1999.90;999.90;;;16.00;99.90;;;;;;5051638;28;20402;-73
2022/04/22 09:04:51;;;;;;;1999.90;999.90;;;16.30;99.90;;;;;;5050635;28;20420;-73
2022/04/22 09:07:19;;;;;;;1999.90;999.90;;;16.40;99.90;;;;;;5051377;28;20485;-74
2022/04/22 09:09:50;;;;;;;1999.90;999.90;;;16.40;99.90;;;;;;5051489;28;20194;-73
2022/04/22 09:12:19;;;;;;;1999.90;999.90;;;16.40;99.90;;;;;;5051217;28;20832;-73
2022/04/22 09:14:51;;;;;;;1999.90;999.90;;;16.40;99.90;;;;;;5050879;28;20455;-73
2022/04/22 09:17:23;;;;;;;1999.90;999.90;;;16.40;99.90;;;;;;5051331;28;20404;-71
2022/04/22 09:19:51;;;;;;;1999.90;999.90;;;16.40;99.90;;;;;;5051368;28;20420;-72
2022/04/22 09:22:27;;;;;;;1999.90;999.90;;;16.50;99.90;;;;;;5051328;28;20436;-72
2022/04/22 09:24:54;;;;;;;1999.90;999.90;;;16.50;99.90;;;;;;5052938;28;20408;-72
2022/04/22 09:27:37;;;;;;;1999.90;999.90;;;16.60;99.90;;;;;;5051315;28;20776;-72
2022/04/22 09:30:07;;;;;;;1999.90;999.90;;;16.70;99.90;;;;;;5049549;28;20447;-72
2022/04/22 09:32:35;;;;;;;1999.90;999.90;;;16.70;99.90;;;;;;5051758;28;20414;-72
2022/04/22 09:35:16;;;;;;;1999.90;999.90;;;16.80;99.90;;;;;;5051420;28;20438;-72
2022/04/22 09:43:24;;;;;;;1999.90;999.90;;;17.10;99.90;;;;;;5055651;28;20470;-74
2022/04/22 09:45:52;;;;;;;1999.90;999.90;;;17.00;99.90;;;;;;5054308;28;20448;-74
2022/04/22 09:48:19;;;;;;;1999.90;999.90;;;16.90;99.90;;;;;;5052137;28;20417;-74
2022/04/22 09:50:46;;;;;;;1999.90;999.90;;;16.80;99.90;;;;;;5052908;28;20425;-74
2022/04/22 09:53:14;;;;;;;1999.90;999.90;;;16.70;99.90;;;;;;5052970;28;20417;-75
2022/04/22 09:55:54;;;;;;;1999.90;999.90;;;16.70;99.90;;;;;;5053266;28;21071;-75
2022/04/22 09:58:23;;;;;;;1999.90;999.90;;;16.80;99.90;;;;;;5053968;28;20401;-74
2022/04/22 10:01:03;;;;;;;1999.90;999.90;;;16.90;99.90;;;;;;5054130;28;20395;-74
2022/04/22 10:03:36;;;;;;;1999.90;999.90;;;17.00;99.90;;;;;;5054783;28;20416;-74
2022/04/22 10:06:03;;;;;;;1999.90;999.90;;;17.40;99.90;;;;;;5054962;28;20414;-73
2022/04/22 10:08:36;;;;;;;1999.90;999.90;;;17.70;99.90;;;;;;5055165;28;20560;-74
2022/04/22 10:11:04;;;;;;;1999.90;999.90;;;17.90;99.90;;;;;;5055372;28;20407;-74
2022/04/22 10:13:44;;;;;;;1999.90;999.90;;;18.10;99.90;;;;;;5054953;28;20406;-74
2022/04/22 10:16:11;;;;;;;1999.90;999.90;;;18.20;99.90;;;;;;5054682;28;20950;-75
2022/04/22 10:18:38;;;;;;;1999.90;999.90;;;18.20;99.90;;;;;;5055551;28;20446;-75
2022/04/22 10:21:03;;;;;;;1999.90;999.90;;;18.10;99.90;;;;;;5055405;28;20398;-74
2022/04/22 10:23:30;;;;;;;1999.90;999.90;;;18.00;99.90;;;;;;5051617;28;20775;-71
2022/04/22 10:25:56;;;;;;;1999.90;999.90;;;18.10;99.90;;;;;;5054424;28;20175;-71
2022/04/22 10:28:23;;;;;;;1999.90;999.90;;;18.10;99.90;;;;;;5054568;28;20407;-71
2022/04/22 10:30:52;;;;;;;1999.90;999.90;;;18.00;99.90;;;;;;5055708;28;20405;-71
2022/04/22 10:33:18;;;;;;;1999.90;999.90;;;17.90;99.90;;;;;;5055375;28;20441;-71
2022/04/22 10:35:46;;;;;;;1999.90;999.90;;;17.80;99.90;;;;;;5053691;28;20442;-71
2022/04/22 10:38:35;;;;;;;1999.90;999.90;;;17.90;99.90;;;;;;5053919;28;20480;-71
2022/04/22 10:41:02;;;;;;;1999.90;999.90;;;18.00;99.90;;;;;;5054619;28;21124;-71
2022/04/22 10:43:28;;;;;;;1999.90;999.90;;;18.40;99.90;;;;;;5054044;28;20964;-70
2022/04/22 10:49:02;;;;;;;1999.90;999.90;;;19.00;99.90;;;;;;5054638;28;20487;-73
2022/04/22 10:51:56;;;;;;;1999.90;999.90;;;19.30;99.10;;;;;;5053960;28;20504;-73
2022/04/22 10:54:49;;;;;;;1999.90;999.90;;;19.70;97.50;;;;;;5055145;28;20436;-73
2022/04/22 10:57:23;;;;;;;1999.90;999.90;;;20.40;95.40;;;;;;5053509;28;20414;-73
2022/04/22 11:00:07;;;;;;;1999.90;999.90;;;21.00;93.90;;;;;;5055963;28;20417;-73
2022/04/22 11:02:39;;;;;;;1999.90;999.90;;;21.30;88.90;;;;;;5054069;28;20458;-73
2022/04/22 11:05:20;;;;;;;1999.90;999.90;;;21.40;87.70;;;;;;5054590;28;20411;-73
2022/04/22 11:07:52;;;;;;;1999.90;999.90;;;21.60;85.60;;;;;;5055788;28;20927;-74
2022/04/22 11:10:19;;;;;;;1999.90;999.90;;;21.60;66.30;;;;;;5054634;28;20499;-73
2022/04/22 11:12:56;;;;;;;1999.90;999.90;;;21.40;67.00;;;;;;5054424;28;20760;-73
2022/04/22 11:15:43;;;;;;;1999.90;999.90;;;21.40;68.80;;;;;;5054435;28;20492;-73
2022/04/22 11:18:13;;;;;;;1999.90;999.90;;;21.50;67.90;;;;;;5054692;28;20375;-73
2022/04/22 11:20:50;;;;;;;1999.90;999.90;;;21.60;65.90;;;;;;5052992;28;20904;-73
2022/04/22 11:23:15;;;;;;;1999.90;999.90;;;21.80;68.30;;;;;;5054571;28;20402;-73
2022/04/22 11:25:43;;;;;;;1999.90;999.90;;;22.20;63.40;;;;;;5053940;28;20773;-73
2022/04/22 11:28:09;;;;;;;1999.90;999.90;;;22.40;58.00;;;;;;5054292;28;20162;-73
2022/04/22 11:30:35;;;;;;;1999.90;999.90;;;22.60;56.80;;;;;;5053865;28;20425;-73
2022/04/22 11:33:13;;;;;;;1999.90;999.90;;;22.80;54.90;;;;;;5053652;28;20408;-73
2022/04/22 11:35:40;;;;;;;1999.90;999.90;;;22.90;50.10;;;;;;5053471;28;20455;-73
2022/04/22 11:38:06;;;;;;;1999.90;999.90;;;22.80;48.00;;;;;;5054185;28;20400;-73
2022/04/22 11:40:39;;;;;;;1999.90;999.90;;;22.80;50.10;;;;;;5053720;28;20481;-73
2022/04/22 11:43:14;;;;;;;1999.90;999.90;;;22.90;49.80;;;;;;5052787;28;20745;-73
2022/04/22 11:45:48;;;;;;;1999.90;999.90;;;23.10;48.70;;;;;;5053709;28;20781;-73
2022/04/22 11:48:18;;;;;;;1999.90;999.90;;;23.10;46.50;;;;;;5054456;28;20394;-73
2022/04/22 11:50:46;;;;;;;1999.90;999.90;;;23.20;47.60;;;;;;5054634;28;20409;-73
2022/04/22 11:53:18;;;;;;;1999.90;999.90;;;23.20;43.80;;;;;;5055025;28;20898;-73
2022/04/22 11:55:45;;;;;;;1999.90;999.90;;;23.40;43.90;;;;;;5053934;28;20942;-73
2022/04/22 11:58:16;;;;;;;1999.90;999.90;;;23.30;38.90;;;;;;5053470;28;20460;-73
2022/04/22 12:06:17;;;;;;;1999.90;999.90;;;23.60;38.60;;;;;;5053772;28;20451;-73
2022/04/22 12:09:00;;;;;;;1999.90;999.90;;;23.80;37.60;;;;;;5053123;28;20468;-73
2022/04/22 12:11:27;;;;;;;1999.90;999.90;;;24.60;39.00;;;;;;5053208;28;20368;-73
2022/04/22 12:13:53;;;;;;;1999.90;999.90;;;25.40;33.40;;;;;;5053716;28;20489;-73
2022/04/22 12:16:25;;;;;;;1999.90;999.90;;;25.90;32.70;;;;;;5053052;28;20551;-73
2022/04/22 12:18:53;;;;;;;1999.90;999.90;;;26.60;30.10;;;;;;5052832;28;20414;-73
2022/04/22 12:21:20;;;;;;;1999.90;999.90;;;26.80;27.10;;;;;;5053142;28;20413;-73
2022/04/22 12:23:50;;;;;;;1999.90;999.90;;;26.60;26.30;;;;;;5053703;28;20416;-73
2022/04/22 12:26:23;;;;;;;1999.90;999.90;;;26.20;25.00;;;;;;5053230;28;20481;-73
2022/04/22 12:29:09;;;;;;;1999.90;999.90;;;25.50;25.30;;;;;;5053488;28;20507;-73
2022/04/22 12:31:38;;;;;;;1999.90;999.90;;;24.80;25.90;;;;;;5053237;28;20381;-73
2022/04/22 12:34:07;;;;;;;1999.90;999.90;;;24.40;25.90;;;;;;5052847;28;20404;-73
2022/04/22 12:36:51;;;;;;;1999.90;999.90;;;23.90;26.80;;;;;;5052833;28;20458;-73
2022/04/22 12:39:42;;;;;;;1999.90;999.90;;;23.30;28.80;;;;;;5052930;28;20429;-73
2022/04/22 12:42:17;;;;;;;1999.90;999.90;;;23.00;29.00;;;;;;5052090;28;20907;-73
2022/04/22 12:52:07;;;;;;;1999.90;999.90;;;22.50;30.00;;;;;;5052610;28;20402;-73
2022/04/22 12:52:57;;;;;;;1999.90;999.90;;;22.10;32.40;;;;;;5053111;28;20483;-73
2022/04/22 12:55:23;;;;;;;1999.90;999.90;;;22.10;32.20;;;;;;5052570;28;20415;-73
2022/04/22 12:57:58;;;;;;;1999.90;999.90;;;21.90;31.90;;;;;;5052305;28;20172;-72
2022/04/22 13:00:25;;;;;;;1999.90;999.90;;;21.90;33.50;;;;;;5051715;28;20190;-73
2022/04/22 13:02:50;;;;;;;1999.90;999.90;;;22.00;34.70;;;;;;5051475;28;21075;-73
2022/04/22 13:05:18;;;;;;;1999.90;999.90;;;22.40;34.80;;;;;;5051359;28;20386;-73
2022/04/22 13:07:52;;;;;;;1999.90;999.90;;;22.50;32.30;;;;;;5050715;28;20260;-72
2022/04/22 13:10:20;;;;;;;1999.90;999.90;;;22.70;32.20;;;;;;5051109;28;20562;-72
2022/04/22 13:12:46;;;;;;;1999.90;999.90;;;23.20;30.90;;;;;;5051546;28;20414;-72